Map

Track Data

SID SEASON NUMBER BASIN SUBBASIN NAME ISO_TIME NATURE LAT LON WMO_WIND WMO_PRES WMO_AGENCY TRACK_TYPE DIST2LAND LANDFALL IFLAG USA_AGENCY USA_ATCF_ID USA_LAT USA_LON USA_RECORD USA_STATUS USA_WIND USA_PRES USA_SSHS USA_R34_NE USA_R34_SE USA_R34_SW USA_R34_NW USA_R50_NE USA_R50_SE USA_R50_SW USA_R50_NW USA_R64_NE USA_R64_SE USA_R64_SW USA_R64_NW USA_POCI USA_ROCI USA_RMW USA_EYE TOKYO_LAT TOKYO_LON TOKYO_GRADE TOKYO_WIND TOKYO_PRES TOKYO_R50_DIR TOKYO_R50_LONG TOKYO_R50_SHORT TOKYO_R30_DIR TOKYO_R30_LONG TOKYO_R30_SHORT TOKYO_LAND CMA_LAT CMA_LON CMA_CAT CMA_WIND CMA_PRES HKO_LAT HKO_LON HKO_CAT HKO_WIND HKO_PRES NEWDELHI_LAT NEWDELHI_LON NEWDELHI_GRADE NEWDELHI_WIND NEWDELHI_PRES NEWDELHI_CI NEWDELHI_DP NEWDELHI_POCI REUNION_LAT REUNION_LON REUNION_TYPE REUNION_WIND REUNION_PRES REUNION_TNUM REUNION_CI REUNION_RMW REUNION_R34_NE REUNION_R34_SE REUNION_R34_SW REUNION_R34_NW REUNION_R50_NE REUNION_R50_SE REUNION_R50_SW REUNION_R50_NW REUNION_R64_NE REUNION_R64_SE REUNION_R64_SW REUNION_R64_NW BOM_LAT BOM_LON BOM_TYPE BOM_WIND BOM_PRES BOM_TNUM BOM_CI BOM_RMW BOM_R34_NE BOM_R34_SE BOM_R34_SW BOM_R34_NW BOM_R50_NE BOM_R50_SE BOM_R50_SW BOM_R50_NW BOM_R64_NE BOM_R64_SE BOM_R64_SW BOM_R64_NW BOM_ROCI BOM_POCI BOM_EYE BOM_POS_METHOD BOM_PRES_METHOD NADI_LAT NADI_LON NADI_CAT NADI_WIND NADI_PRES WELLINGTON_LAT WELLINGTON_LON WELLINGTON_WIND WELLINGTON_PRES DS824_LAT DS824_LON DS824_STAGE DS824_WIND DS824_PRES TD9636_LAT TD9636_LON TD9636_STAGE TD9636_WIND TD9636_PRES TD9635_LAT TD9635_LON TD9635_WIND TD9635_PRES TD9635_ROCI NEUMANN_LAT NEUMANN_LON NEUMANN_CLASS NEUMANN_WIND NEUMANN_PRES MLC_LAT MLC_LON MLC_CLASS MLC_WIND MLC_PRES USA_GUST BOM_GUST BOM_GUST_PER REUNION_GUST REUNION_GUST_PER USA_SEAHGT USA_SEARAD_NE USA_SEARAD_SE USA_SEARAD_SW USA_SEARAD_NW STORM_SPEED STORM_DIR
1902259N08329 1902 36 NA NA NOT_NAMED 1902-09-16 06:00:00 TS 7.70000 -30.8000 35 hurdat_atl main 1530 1506 O_____________ hurdat_atl AL031902 7.70000 -30.8000 TS 35 0 12 283
1902259N08329 1902 36 NA NA NOT_NAMED 1902-09-16 09:00:00 TS 7.83519 -31.4024 main 1506 1488 P_____________ AL031902 7.83519 -31.4024 TS 35 0 12 284
1902259N08329 1902 36 NA NA NOT_NAMED 1902-09-16 12:00:00 TS 8.00000 -32.0000 35 hurdat_atl main 1488 1472 O_____________ hurdat_atl AL031902 8.00000 -32.0000 TS 35 0 12 288
1902259N08329 1902 36 NA NA NOT_NAMED 1902-09-16 15:00:00 TS 8.21988 -32.5926 main 1472 1465 P_____________ AL031902 8.21988 -32.5926 TS 35 0 13 293
1902259N08329 1902 36 NA NA NOT_NAMED 1902-09-16 18:00:00 TS 8.50000 -33.2000 35 hurdat_atl main 1470 1465 O_____________ hurdat_atl AL031902 8.50000 -33.2000 TS 35 0 14 297
1902259N08329 1902 36 NA NA NOT_NAMED 1902-09-16 21:00:00 TS 8.84235 -33.8275 main 1470 1470 P_____________ AL031902 8.84235 -33.8275 TS 35 0 15 299
1902259N08329 1902 36 NA NA NOT_NAMED 1902-09-17 00:00:00 TS 9.20000 -34.5000 35 hurdat_atl main 1477 1473 O_____________ hurdat_atl AL031902 9.20000 -34.5000 TS 35 0 15 296
1902259N08329 1902 36 NA NA NOT_NAMED 1902-09-17 03:00:00 TS 9.50743 -35.2351 main 1480 1476 P_____________ AL031902 9.50743 -35.2351 TS 35 0 16 292
1902259N08329 1902 36 NA NA NOT_NAMED 1902-09-17 06:00:00 TS 9.80000 -36.0000 35 hurdat_atl main 1484 1481 O_____________ hurdat_atl AL031902 9.80000 -36.0000 TS 35 0 16 292
1902259N08329 1902 36 NA NA NOT_NAMED 1902-09-17 09:00:00 TS 10.1074 -36.7576 main 1494 1494 P_____________ AL031902 10.1074 -36.7576 TS 35 0 16 292
1902259N08329 1902 36 NA NA NOT_NAMED 1902-09-17 12:00:00 TS 10.4000 -37.5000 35 hurdat_atl main 1511 1510 O_____________ hurdat_atl AL031902 10.4000 -37.5000 TS 35 0 15 291
1902259N08329 1902 36 NA NA NOT_NAMED 1902-09-17 15:00:00 TS 10.6573 -38.2077 main 1534 1531 P_____________ AL031902 10.6573 -38.2077 TS 35 0 15 290
1902259N08329 1902 36 NA NA NOT_NAMED 1902-09-17 18:00:00 TS 10.9000 -38.9000 35 hurdat_atl main 1540 1497 O_____________ hurdat_atl AL031902 10.9000 -38.9000 TS 35 0 15 290
1902259N08329 1902 36 NA NA NOT_NAMED 1902-09-17 21:00:00 TS 11.1498 -39.6001 main 1497 1449 P_____________ AL031902 11.1498 -39.6001 TS 37 0 15 290
1902259N08329 1902 36 NA NA NOT_NAMED 1902-09-18 00:00:00 TS 11.4000 -40.3000 40 hurdat_atl main 1449 1398 O_____________ hurdat_atl AL031902 11.4000 -40.3000 TS 40 0 15 290
1902259N08329 1902 36 NA NA NOT_NAMED 1902-09-18 03:00:00 TS 11.6574 -41.0075 main 1404 1357 P_____________ AL031902 11.6574 -41.0075 TS 40 0 15 290
1902259N08329 1902 36 NA NA NOT_NAMED 1902-09-18 06:00:00 TS 11.9000 -41.7000 40 hurdat_atl main 1357 1320 O_____________ hurdat_atl AL031902 11.9000 -41.7000 TS 40 0 14 289
1902259N08329 1902 36 NA NA NOT_NAMED 1902-09-18 09:00:00 TS 12.1147 -42.3501 main 1312 1279 P_____________ AL031902 12.1147 -42.3501 TS 40 0 13 287
1902259N08329 1902 36 NA NA NOT_NAMED 1902-09-18 12:00:00 TS 12.3000 -43.0000 40 hurdat_atl main 1279 1241 O_____________ hurdat_atl AL031902 12.3000 -43.0000 TS 40 0 13 284
1902259N08329 1902 36 NA NA NOT_NAMED 1902-09-18 15:00:00 TS 12.4422 -43.6703 main 1233 1200 P_____________ AL031902 12.4422 -43.6703 TS 42 0 14 282
1902259N08329 1902 36 NA NA NOT_NAMED 1902-09-18 18:00:00 TS 12.6000 -44.4000 45 hurdat_atl main 1200 1164 O_____________ hurdat_atl AL031902 12.6000 -44.4000 TS 45 0 16 284
1902259N08329 1902 36 NA NA NOT_NAMED 1902-09-18 21:00:00 TS 12.8350 -45.2350 main 1164 1136 P_____________ AL031902 12.8350 -45.2350 TS 47 0 17 287
1902259N08329 1902 36 NA NA NOT_NAMED 1902-09-19 00:00:00 TS 13.1000 -46.1000 50 hurdat_atl main 1136 1102 O_____________ hurdat_atl AL031902 13.1000 -46.1000 TS 50 0 17 287
1902259N08329 1902 36 NA NA NOT_NAMED 1902-09-19 03:00:00 TS 13.3347 -46.9078 main 1102 1083 P_____________ AL031902 13.3347 -46.9078 TS 50 0 16 288
1902259N08329 1902 36 NA NA NOT_NAMED 1902-09-19 06:00:00 TS 13.6000 -47.7000 50 hurdat_atl main 1083 1072 O_____________ hurdat_atl AL031902 13.6000 -47.7000 TS 50 0 17 290
1902259N08329 1902 36 NA NA NOT_NAMED 1902-09-19 09:00:00 TS 13.9122 -48.5004 main 1072 1068 P_____________ AL031902 13.9122 -48.5004 TS 52 0 17 294
1902259N08329 1902 36 NA NA NOT_NAMED 1902-09-19 12:00:00 TS 14.3000 -49.3000 55 hurdat_atl main 1078 1074 O_____________ hurdat_atl AL031902 14.3000 -49.3000 TS 55 0 18 298
1902259N08329 1902 36 NA NA NOT_NAMED 1902-09-19 15:00:00 TS 14.7399 -50.1154 main 1082 1082 P_____________ AL031902 14.7399 -50.1154 TS 57 0 18 303
1902259N08329 1902 36 NA NA NOT_NAMED 1902-09-19 18:00:00 TS 15.3000 -50.9000 60 hurdat_atl main 1112 1112 O_____________ hurdat_atl AL031902 15.3000 -50.9000 TS 60 0 19 309
1902259N08329 1902 36 NA NA NOT_NAMED 1902-09-19 21:00:00 TS 15.9676 -51.6675 main 1163 1155 P_____________ AL031902 15.9676 -51.6675 TS 62 0 20 318
1902259N08329 1902 36 NA NA NOT_NAMED 1902-09-20 00:00:00 TS 16.8000 -52.3000 65 hurdat_atl main 1161 1159 O_____________ hurdat_atl AL031902 16.8000 -52.3000 HU 65 1 21 330
1902259N08329 1902 36 NA NA NOT_NAMED 1902-09-20 03:00:00 TS 17.8048 -52.7548 main 1188 1188 P_____________ AL031902 17.8048 -52.7548 HU 67 1 22 342
1902259N08329 1902 36 NA NA NOT_NAMED 1902-09-20 06:00:00 TS 18.9000 -53.0000 70 hurdat_atl main 1257 1257 O_____________ hurdat_atl AL031902 18.9000 -53.0000 HU 70 1 22 352
1902259N08329 1902 36 NA NA NOT_NAMED 1902-09-20 09:00:00 TS 19.9648 -53.0829 main 1324 1324 P_____________ AL031902 19.9648 -53.0829 HU 72 1 21 0
1902259N08329 1902 36 NA NA NOT_NAMED 1902-09-20 12:00:00 TS 21.0000 -53.0000 75 hurdat_atl main 1350 1350 O_____________ hurdat_atl AL031902 21.0000 -53.0000 HU 75 1 20 6
1902259N08329 1902 36 NA NA NOT_NAMED 1902-09-20 15:00:00 TS 21.9723 -52.8671 main 1384 1384 P_____________ AL031902 21.9723 -52.8671 HU 77 1 19 11
1902259N08329 1902 36 NA NA NOT_NAMED 1902-09-20 18:00:00 TS 22.9000 -52.6000 80 hurdat_atl main 1442 1442 O_____________ hurdat_atl AL031902 22.9000 -52.6000 HU 80 1 19 18
1902259N08329 1902 36 NA NA NOT_NAMED 1902-09-20 21:00:00 TS 23.8074 -52.2096 main 1514 1514 P_____________ AL031902 23.8074 -52.2096 HU 82 1 20 25
1902259N08329 1902 36 NA NA NOT_NAMED 1902-09-21 00:00:00 TS 24.7000 -51.7000 85 hurdat_atl main 1599 1599 O_____________ hurdat_atl AL031902 24.7000 -51.7000 HU 85 2 21 29
1902259N08329 1902 36 NA NA NOT_NAMED 1902-09-21 03:00:00 TS 25.6002 -51.1074 main 1695 1695 P_____________ AL031902 25.6002 -51.1074 HU 85 2 21 31
1902259N08329 1902 36 NA NA NOT_NAMED 1902-09-21 06:00:00 TS 26.5000 -50.5000 85 hurdat_atl main 1793 1793 O_____________ hurdat_atl AL031902 26.5000 -50.5000 HU 85 2 21 29
1902259N08329 1902 36 NA NA NOT_NAMED 1902-09-21 09:00:00 TS 27.3921 -49.9910 main 1884 1884 P_____________ AL031902 27.3921 -49.9910 HU 85 2 20 26
1902259N08329 1902 36 NA NA NOT_NAMED 1902-09-21 12:00:00 TS 28.3000 -49.5000 85 hurdat_atl main 1977 1971 O_____________ hurdat_atl AL031902 28.3000 -49.5000 HU 85 2 21 26
1902259N08329 1902 36 NA NA NOT_NAMED 1902-09-21 15:00:00 TS 29.2424 -48.9568 main 1971 1881 P_____________ AL031902 29.2424 -48.9568 HU 85 2 21 27
1902259N08329 1902 36 NA NA NOT_NAMED 1902-09-21 18:00:00 TS 30.2000 -48.4000 85 hurdat_atl main 1872 1784 O_____________ hurdat_atl AL031902 30.2000 -48.4000 HU 85 2 22 26
1902259N08329 1902 36 NA NA NOT_NAMED 1902-09-21 21:00:00 TS 31.1795 -47.8641 main 1773 1690 P_____________ AL031902 31.1795 -47.8641 HU 82 1 21 26
1902259N08329 1902 36 NA NA NOT_NAMED 1902-09-22 00:00:00 TS 32.1000 -47.3000 80 hurdat_atl main 1690 1620 O_____________ hurdat_atl AL031902 32.1000 -47.3000 HU 80 1 20 31
1902259N08329 1902 36 NA NA NOT_NAMED 1902-09-22 03:00:00 TS 32.9024 -46.6569 main 1620 1568 P_____________ AL031902 32.9024 -46.6569 HU 77 1 19 36
1902259N08329 1902 36 NA NA NOT_NAMED 1902-09-22 06:00:00 TS 33.6000 -46.0000 75 hurdat_atl main 1568 1523 O_____________ hurdat_atl AL031902 33.6000 -46.0000 HU 75 1 17 37
1902259N08329 1902 36 NA NA NOT_NAMED 1902-09-22 09:00:00 TS 34.2362 -45.4428 main 1527 1488 P_____________ AL031902 34.2362 -45.4428 HU 75 1 16 40
1902259N08329 1902 36 NA NA NOT_NAMED 1902-09-22 12:00:00 ET 34.8000 -44.8000 75 hurdat_atl main 1488 1472 O_____________ hurdat_atl AL031902 34.8000 -44.8000 EX 75 -4 17 50
1902259N08329 1902 36 NA NA NOT_NAMED 1902-09-22 15:00:00 ET 35.3160 -43.8725 main 1476 1469 P_____________ AL031902 35.3160 -43.8725 EX 72 -4 18 57
1902259N08329 1902 36 NA NA NOT_NAMED 1902-09-22 18:00:00 ET 35.8000 -42.9000 70 hurdat_atl main 1474 1462 O_____________ hurdat_atl AL031902 35.8000 -42.9000 EX 70 -4 17 55
1902259N08329 1902 36 NA NA NOT_NAMED 1902-09-22 21:00:00 ET 36.2989 -42.1185 main 1467 1458 P_____________ AL031902 36.2989 -42.1185 EX 67 -4 16 50
1902259N08329 1902 36 NA NA NOT_NAMED 1902-09-23 00:00:00 ET 36.8000 -41.4000 65 hurdat_atl main 1460 1453 O_____________ hurdat_atl AL031902 36.8000 -41.4000 EX 65 -4 16 50
1902259N08329 1902 36 NA NA NOT_NAMED 1902-09-23 03:00:00 ET 37.3072 -40.6419 main 1462 1453 P_____________ AL031902 37.3072 -40.6419 EX 65 -4 16 50
1902259N08329 1902 36 NA NA NOT_NAMED 1902-09-23 06:00:00 ET 37.8000 -39.9000 65 hurdat_atl main 1462 1458 O_____________ hurdat_atl AL031902 37.8000 -39.9000 EX 65 -4 15 50
1902259N08329 1902 36 NA NA NOT_NAMED 1902-09-23 09:00:00 ET 38.2644 -39.1915 main 1466 1466 P_____________ AL031902 38.2644 -39.1915 EX 62 -4 14 51
1902259N08329 1902 36 NA NA NOT_NAMED 1902-09-23 12:00:00 ET 38.7000 -38.5000 60 hurdat_atl main 1480 1479 O_____________ hurdat_atl AL031902 38.7000 -38.5000 EX 60 -4 14 53
1902259N08329 1902 36 NA NA NOT_NAMED 1902-09-23 15:00:00 ET 39.0997 -37.7914 main 1496 1496 P_____________ AL031902 39.0997 -37.7914 EX 57 -4 13 54
1902259N08329 1902 36 NA NA NOT_NAMED 1902-09-23 18:00:00 ET 39.5000 -37.1000 55 hurdat_atl main 1515 1515 O_____________ hurdat_atl AL031902 39.5000 -37.1000 EX 55 -4 13 51
1902259N08329 1902 36 NA NA NOT_NAMED 1902-09-23 21:00:00 ET 39.9420 -36.4417 main 1537 1530 P_____________ AL031902 39.9420 -36.4417 EX 55 -4 13 48
1902259N08329 1902 36 NA NA NOT_NAMED 1902-09-24 00:00:00 ET 40.4000 -35.8000 55 hurdat_atl main 1547 1547 O_____________ hurdat_atl AL031902 40.4000 -35.8000 EX 55 -4 13 47
1902259N08329 1902 36 NA NA NOT_NAMED 1902-09-24 03:00:00 ET 40.8420 -35.1562 main 1565 1565 P_____________ AL031902 40.8420 -35.1562 EX 52 -4 13 48
1902259N08329 1902 36 NA NA NOT_NAMED 1902-09-24 06:00:00 ET 41.3000 -34.5000 50 hurdat_atl main 1584 1584 O_____________ hurdat_atl AL031902 41.3000 -34.5000 EX 50 -4 14 49
1902259N08329 1902 36 NA NA NOT_NAMED 1902-09-24 09:00:00 ET 41.7397 -33.8050 main 1611 1605 P_____________ AL031902 41.7397 -33.8050 EX 50 -4 14 46
1902259N08329 1902 36 NA NA NOT_NAMED 1902-09-24 12:00:00 ET 42.3000 -33.1000 50 hurdat_atl main 1629 1629 O_____________ hurdat_atl AL031902 42.3000 -33.1000 EX 50 -4 17 38
1902259N08329 1902 36 NA NA NOT_NAMED 1902-09-24 15:00:00 ET 43.0973 -32.3926 main 1642 1642 P_____________ AL031902 43.0973 -32.3926 EX 47 -4 20 31
1902259N08329 1902 36 NA NA NOT_NAMED 1902-09-24 18:00:00 ET 44.0000 -31.7000 45 hurdat_atl main 1655 1655 O_____________ hurdat_atl AL031902 44.0000 -31.7000 EX 45 -4 20 30
1902259N08329 1902 36 NA NA NOT_NAMED 1902-09-24 21:00:00 ET 44.8350 -31.0041 main 1678 1602 P_____________ AL031902 44.8350 -31.0041 EX 45 -4 19 28
1902259N08329 1902 36 NA NA NOT_NAMED 1902-09-25 00:00:00 ET 45.7000 -30.4000 45 hurdat_atl main 1602 1524 O_____________ hurdat_atl AL031902 45.7000 -30.4000 EX 45 -4 19 22
1902259N08329 1902 36 NA NA NOT_NAMED 1902-09-25 03:00:00 ET 46.6119 -29.9592 main 1524 1450 P_____________ AL031902 46.6119 -29.9592 EX 45 -4 20 16
1902259N08329 1902 36 NA NA NOT_NAMED 1902-09-25 06:00:00 ET 47.6000 -29.6000 45 hurdat_atl main 1446 1365 O_____________ hurdat_atl AL031902 47.6000 -29.6000 EX 45 -4 22 15
1902259N08329 1902 36 NA NA NOT_NAMED 1902-09-25 09:00:00 ET 48.7078 -29.1148 main 1360 1300 P_____________ AL031902 48.7078 -29.1148 EX 42 -4 23 13
1902259N08329 1902 36 NA NA NOT_NAMED 1902-09-25 12:00:00 ET 49.8000 -28.8000 40 hurdat_atl main 1297 1271 O_____________ hurdat_atl AL031902 49.8000 -28.8000 EX 40 -4 20 4
1902259N08329 1902 36 NA NA NOT_NAMED 1902-09-25 15:00:00 ET 50.7476 -28.8734 main 1275 1268 P_____________ AL031902 50.7476 -28.8734 EX 40 -4 18 352
1902259N08329 1902 36 NA NA NOT_NAMED 1902-09-25 18:00:00 ET 51.6000 -29.2000 40 hurdat_atl main 1272 O_____________ hurdat_atl AL031902 51.6000 -29.2000 EX 40 -4 17 347

About IBTrACS Database

This database is a web-friendly format of International Best Track Archive for Climate Stewardship (IBTrACS), a global best track data archive curated by NOAA dating back to 1842.

Updated: 2021-12-01